Tiempo atmosférico en la estación meteorológica de Almadén, Ciudad Real (535 m.)



Fecha
DESCASC
Temp. máxima en grados centígrados (hora)
DESCASC
Temp. mínima en grados centígrados (hora)
DESCASC
Temp. media en grados centígrados
DESCASC
Racha de viento máxima en m/sg (hora)
DESCASC
Velocidad máxima media en intervalos de 10 minutos(hora)
DESCASC
Precipitaciones diarias en mm
DESCASC
Precipitaciones de 00:00 a 06:00 en mm
DESCASC
Precipitaciones de 06:00 a 12:00 en mm
DESCASC
Precipitaciones de 12:00 a 18:00 en mm
DESCASC
Precipitaciones de 18:00 a 24:00 en mm
DESCASC
17-08-2018 33.9 (16:30) 19.2 (07:40) 26.6 8.61 (02:30) 5.83 (02:40) 0.4 0.4 0 0 0
16-08-2018 35.4 (16:00) 20.5 (07:50) 28 10.83 (19:50) 5.83 (03:00) 0 0 0 0 0
15-08-2018 36.3 (17:40) 21.4 (07:30) 28.8 10.83 (21:00) 5.56 (21:00) 0 0 0 0 0
14-08-2018 36.7 (18:00) 19.9 (07:50) 28.3 6.67 (15:00) 3.89 (15:00) 0 0 0 0 0
13-08-2018 33.2 (17:10) 20.4 (08:10) 26.8 7.5 (15:40) 2.78 (16:50) 0 0 0 0 0
12-08-2018 37.5 (17:20) 24.2 (00:00) 30.9 12.22 (13:40) 6.11 (14:50) 0 0 0 0 0
11-08-2018 37.6 (16:40) 22.6 (00:00) 30.1 8.33 (21:00) 5.28 (05:20) 0 0 0 0 0
10-08-2018 36.6 (17:10) 18.6 (00:00) 27.6 7.5 (15:50) 3.33 (15:50) 0 0 0 0 0
09-08-2018 31.2 (17:10) 16.2 (00:00) 23.7 7.5 (01:00) 3.61 (01:00) 0 0 0 0 0
08-08-2018 35.6 (16:40) 20.8 (00:00) 28.2 13.61 (17:30) 6.39 (17:30) 0 0 0 0 0
07-08-2018 34.8 (16:10) 25.1 (00:00) 29.9 7.22 (19:10) 2.78 (10:00) 0 0 0 0 0
06-08-2018 41 (17:10) 24.3 (00:00) 32.6 12.22 (19:40) 5.56 (20:00) 0 0 0 0 0
05-08-2018 39.8 (16:10) 25.5 (00:00) 32.6 9.72 (17:40) 4.17 (18:10) 0 0 0 0 0
04-08-2018 40.9 (16:30) 25.9 (08:30) 33.4 8.89 (18:50) 4.17 (13:40) 0 0 0 0 0
03-08-2018 42.1 (17:40) 26.4 (00:00) 34.2 14.17 (20:00) 6.39 (20:00) 0 0 0 0 0
02-08-2018 41.6 (17:10) 24.7 (00:00) 33.1 6.11 (02:30) 4.72 (02:30) 0 0 0 0 0
01-08-2018 40.9 (17:40) 20.9 (07:40) 30.9 6.67 (15:30) 3.33 (15:40) 0 0 0 0 0
31-07-2018 36.7 (16:40) 19.5 (00:00) 28.1 5.56 (16:50) 2.78 (16:50) 0 0 0 0 0
30-07-2018 34 (18:40) 17.3 (00:00) 25.6 5.83 (17:50) 2.5 (09:40) 0 0 0 0 0
29-07-2018 31.6 (17:50) 17.8 (00:00) 24.7 6.39 (15:30) 2.5 (13:20) 0 0 0 0 0
28-07-2018 33.5 (16:00) 17.5 (00:00) 25.5 8.06 (15:30) 5 (12:40) 0 0 0 0 0
27-07-2018 34.6 (15:00) 20 (00:00) 27.3 7.78 (14:50) 3.33 (14:40) 0 0 0 0 0
26-07-2018 34.1 (17:50) 19.1 (00:00) 26.6 6.39 (17:50) 2.78 (17:50) 0 0 0 0 0
25-07-2018 36.1 (17:30) 18.9 (00:00) 27.5 7.78 (14:00) 3.61 (14:40) 0 0 0 0 0
24-07-2018 34.9 (16:40) 19.5 (00:00) 27.2 6.39 (14:50) 2.78 (12:30) 0 0 0 0 0
23-07-2018 36.4 (17:00) 21 (00:00) 28.7 10.28 (18:20) 6.11 (18:30) 0 0 0 0 0
22-07-2018 36.1 (17:30) 19.8 (00:00) 27.9 6.94 (14:30) 3.89 (14:40) 0 0 0 0 0
21-07-2018 33.1 (17:20) 18.1 (00:00) 25.6 7.22 (17:20) 2.5 (14:40) 0 0 0 0 0
20-07-2018 31.5 (17:30) 17.8 (00:00) 24.6 7.22 (16:40) 2.78 (16:50) 0 0 0 0 0

Gráficas

Temp. máximas Temp. mínimas Temp. medias Precipitaciones Rachas de viento máximas Velocidades máximas media en intervalos de 10 minutos

Datos horarios

Fecha y hora oficial Temperatura (ºC) Velocidad del viento (km/h) Dirección del viento Racha (km/h) Dirección de racha Precipitación (mm) Presión (hPa) Tendencia (hPa) Humedad (%)
2018-08-18 23:00:00 29.5 4 Norte 9 Norte 0 -- -- 29
2018-08-18 22:00:00 30.1 3 Norte 11 Norte 0 -- -- 28
2018-08-18 21:00:00 31.8 3 Noroeste 24 Norte 0 -- -- 26
2018-08-18 20:00:00 33.1 5 Norte 17 Norte 0 -- -- 26
2018-08-18 19:00:00 35.4 4 Oeste 17 Sudoeste 0 -- -- 24
2018-08-18 18:00:00 35.3 7 Oeste 17 Noroeste 0 -- -- 24
2018-08-18 17:00:00 36.2 9 Sudoeste 28 Oeste 0 -- -- 24
2018-08-18 16:00:00 33.4 3 Sudoeste 19 Sudoeste 0 -- -- 27
2018-08-18 15:00:00 35.6 8 Sur 23 Sur 0 -- -- 27
2018-08-18 14:00:00 33.7 5 Oeste 21 Sudoeste 0 -- -- 28
2018-08-18 13:00:00 32.4 8 Sudoeste 22 Sur 0 -- -- 32
2018-08-18 12:00:00 30.4 9 Sur 21 Sudoeste 0 -- -- 38
2018-08-18 11:00:00 27.3 5 Sur 12 Sur 0 -- -- 46
2018-08-18 10:00:00 24.3 3 Sudeste 17 Este 0 -- -- 56
2018-08-18 09:00:00 22.1 5 Este 18 Sudeste 0 -- -- 61
2018-08-18 08:00:00 21 2 Nordeste 8 Nordeste 0 -- -- 59
2018-08-18 07:00:00 21.3 0 Calma 3 Nordeste 0 -- -- 53
2018-08-18 06:00:00 21.8 0 Calma 8 Sur 0 -- -- 52
2018-08-18 05:00:00 23 4 Sur 8 Sudoeste 0 -- -- 48
2018-08-18 04:00:00 24.4 0 Calma 5 Nordeste 0 -- -- 41
2018-08-18 03:00:00 25 0 Calma 4 Noroeste 0 -- -- 44
2018-08-18 02:00:00 25 0 Calma 10 Sudoeste 0 -- -- 44
2018-08-18 01:00:00 25.8 0 Calma 3 Oeste 0 -- -- 40
2018-08-18 00:00:00 26.8 0 Calma 3 Oeste 0 -- -- 38
2018-08-17 23:00:00 27.4 0 Calma 4 Norte 0 -- -- 39
2018-08-17 22:00:00 28.5 0 Calma 5 Sudoeste 0 -- -- 36
2018-08-17 21:00:00 30.7 2 Noroeste 14 Norte 0 -- -- 33
2018-08-17 20:00:00 32 3 Noroeste 12 Noroeste 0 -- -- 34
2018-08-17 19:00:00 33.4 4 Nordeste 13 Noroeste 0 -- -- 31
2018-08-17 18:00:00 32.8 5 Oeste 15 Noroeste 0 -- -- 31
2018-08-17 17:00:00 33.2 4 Oeste 23 Norte 0 -- -- 33
2018-08-17 16:00:00 32.9 5 Noroeste 19 Norte 0 -- -- 31
2018-08-17 15:00:00 32.1 5 Nordeste 13 Nordeste 0 -- -- 34
2018-08-17 14:00:00 30.2 4 Nordeste 10 Norte 0 -- -- 38
2018-08-17 13:00:00 29.5 4 Sudoeste 12 Sur 0 -- -- 40
2018-08-17 12:00:00 27.9 5 Sudoeste 15 Sudoeste 0 -- -- 51
2018-08-17 11:00:00 25.1 6 Sudoeste 11 Sur 0 -- -- 60
2018-08-17 10:00:00 22.2 2 Sudoeste 7 Nordeste 0 -- -- 71
2018-08-17 09:00:00 20.3 2 Sur 4 Sudoeste 0 -- -- 77
2018-08-17 08:00:00 19.3 0 Calma 8 Nordeste 0 -- -- 83
2018-08-17 07:00:00 19.5 0 Calma 3 Sudeste 0 -- -- 80
2018-08-17 06:00:00 19.4 3 Norte 11 Sudoeste 0 -- -- 85
2018-08-17 05:00:00 19.6 4 Sur 10 Nordeste 0 -- -- 84
2018-08-17 04:00:00 20.2 5 Nordeste 19 Este 0.2 -- -- 73
2018-08-17 03:00:00 20.3 5 Sudeste 31 Sur 0 -- -- 78
2018-08-17 02:00:00 21 3 Sudoeste 20 Nordeste 0.2 -- -- 82
2018-08-17 01:00:00 24.2 12 Norte 25 Nordeste 0 -- -- 54
2018-08-17 00:00:00 23.6 13 Sur 30 Sur 0 -- -- 53
2018-08-16 23:00:00 25.6 15 Sur 26 Sudeste 0 -- -- 42
2018-08-16 22:00:00 26.4 8 Sur 35 Sur 0 -- -- 43
2018-08-16 21:00:00 27.8 13 Sur 31 Sur 0 -- -- 40
2018-08-16 20:00:00 31.2 10 Sudeste 39 Sur 0 -- -- 34
2018-08-16 19:00:00 33.8 4 Noroeste 16 Oeste 0 -- -- 25
2018-08-16 18:00:00 34.3 7 Oeste 20 Oeste 0 -- -- 24
2018-08-16 17:00:00 35.2 6 Oeste 22 Oeste 0 -- -- 24
2018-08-16 16:00:00 35.4 10 Sudoeste 22 Sur 0 -- -- 26
2018-08-16 15:00:00 33.8 12 Sudoeste 24 Sudoeste 0 -- -- 28
2018-08-16 14:00:00 32.5 10 Sudoeste 23 Sur 0 -- -- 35
2018-08-16 13:00:00 30.7 9 Sudoeste 22 Sur 0 -- -- 39
2018-08-16 12:00:00 29 6 Sudoeste 24 Sur 0 -- -- 40
2018-08-16 11:00:00 26.2 12 Sur 20 Sur 0 -- -- 45
2018-08-16 10:00:00 22.4 9 Sur 16 Sudoeste 0 -- -- 48
2018-08-16 09:00:00 20.6 9 Sudoeste 15 Sur 0 -- -- 50
2018-08-16 08:00:00 20.5 10 Sur 14 Sudoeste 0 -- -- 48
2018-08-16 07:00:00 21.2 9 Sudoeste 28 Sudoeste 0 -- -- 44
2018-08-16 06:00:00 22.3 13 Sudoeste 23 Sur 0 -- -- 41
2018-08-16 05:00:00 22.7 13 Sudoeste 19 Sur 0 -- -- 39
2018-08-16 04:00:00 23.2 9 Sudoeste 24 Sur 0 -- -- 39
2018-08-16 03:00:00 24.4 21 Sudoeste 32 Oeste 0 -- -- 37
2018-08-16 02:00:00 24.9 18 Sudoeste 30 Sur 0 -- -- 37
2018-08-16 01:00:00 25.8 18 Sudoeste 25 Sudoeste 0 -- -- 35
2018-08-16 00:00:00 27.1 12 Sudoeste 27 Sudoeste 0 -- -- 32
2018-08-15 23:00:00 28.3 12 Sudoeste 23 Sur 0 -- -- 24
2018-08-15 22:00:00 29.5 12 Sudoeste 28 Oeste 0 -- -- 23
2018-08-15 21:00:00 31.3 20 Sudoeste 39 Sur 0 -- -- 24
2018-08-15 20:00:00 32.8 18 Sudoeste 28 Sur 0 -- -- 23
2018-08-15 19:00:00 33.9 16 Sudoeste 26 Sudoeste 0 -- -- 22
2018-08-15 18:00:00 35.4 15 Sudoeste 34 Sudoeste 0 -- -- 22
2018-08-15 17:00:00 35.5 9 Sudoeste 27 Sur 0 -- -- 24
2018-08-15 16:00:00 35.3 17 Sudoeste 31 Sudoeste 0 -- -- 25
2018-08-15 15:00:00 35.9 14 Sur 30 Sur 0 -- -- 24
2018-08-15 14:00:00 34.3 13 Sudoeste 33 Sur 0 -- -- 24
2018-08-15 13:00:00 33 12 Sudoeste 25 Sur 0 -- -- 25
2018-08-15 12:00:00 30.3 12 Sudoeste 23 Sur 0 -- -- 29
2018-08-15 11:00:00 27.3 13 Sudoeste 21 Sudoeste 0 -- -- 33
2018-08-15 10:00:00 23.7 6 Sur 15 Sur 0 -- -- 39
2018-08-15 09:00:00 21.8 7 Sur 13 Sur 0 -- -- 43
2018-08-15 08:00:00 21.7 9 Sur 14 Sudeste 0 -- -- 42
2018-08-15 07:00:00 22.5 4 Sudoeste 12 Sudoeste 0 -- -- 39
2018-08-15 06:00:00 23.1 5 Sudoeste 9 Sur 0 -- -- 37
2018-08-15 05:00:00 23.8 5 Sudoeste 8 Sudoeste 0 -- -- 34
2018-08-15 04:00:00 24.2 2 Sudoeste 5 Oeste 0 -- -- 32
2018-08-15 03:00:00 25.3 2 Nordeste 5 Nordeste 0 -- -- 31
2018-08-15 02:00:00 26.2 0 Calma 6 Nordeste 0 -- -- 30
2018-08-15 01:00:00 27.5 2 Sudoeste 19 Sur 0 -- -- 28
2018-08-15 00:00:00 28.5 0 Calma 5 Noroeste 0 -- -- 26
2018-08-14 23:00:00 28.9 0 Calma 5 Oeste 0 -- -- 25
2018-08-14 22:00:00 30 0 Calma 4 Noroeste 0 -- -- 24
2018-08-14 21:00:00 33.6 0 Calma 11 Oeste 0 -- -- 21
2018-08-14 20:00:00 33.8 4 Oeste 16 Oeste 0 -- -- 20
2018-08-14 19:00:00 36.1 4 Oeste 22 Sur 0 -- -- 18
2018-08-14 18:00:00 36.7 5 Oeste 18 Sur 0 -- -- 18
2018-08-14 17:00:00 36.3 6 Noroeste 22 Oeste 0 -- -- 19
2018-08-14 16:00:00 35.9 7 Sudoeste 24 Sur 0 -- -- 20
2018-08-14 15:00:00 34.9 14 Sudoeste 24 Sur 0 -- -- 21
2018-08-14 14:00:00 34.2 13 Sur 21 Sur 0 -- -- 22
2018-08-14 13:00:00 32.3 12 Sur 21 Sur 0 -- -- 25
2018-08-14 12:00:00 29.3 5 Sudoeste 12 Sur 0 -- -- 33
2018-08-14 11:00:00 26.3 4 Sudoeste 9 Sur 0 -- -- 37
2018-08-14 10:00:00 22.5 5 Sur 8 Sur 0 -- -- 47
2018-08-14 09:00:00 21 0 Calma 4 Norte 0 -- -- 55
2018-08-14 08:00:00 19.9 0 Calma 4 Norte 0 -- -- 53
2018-08-14 07:00:00 20.5 0 Calma 6 Norte 0 -- -- 48
2018-08-14 06:00:00 21 2 Norte 5 Norte 0 -- -- 46
2018-08-14 05:00:00 21.2 0 Calma 6 Norte 0 -- -- 47
2018-08-14 04:00:00 22.3 3 Norte 9 Oeste 0 -- -- 44
2018-08-14 03:00:00 22.8 0 Calma 10 Oeste 0 -- -- 42
2018-08-14 02:00:00 23.8 4 Oeste 12 Oeste 0 -- -- 38
2018-08-14 01:00:00 25.3 2 Noroeste 11 Oeste 0 -- -- 35
2018-08-14 00:00:00 26.3 3 Noroeste 10 Norte 0 -- -- 34
2018-08-13 23:00:00 27.3 0 Calma 4 Oeste 0 -- -- 32
2018-08-13 22:00:00 28.3 0 Calma 10 Sudoeste 0 -- -- 31
2018-08-13 21:00:00 30.7 3 Oeste 16 Noroeste 0 -- -- 22
2018-08-13 20:00:00 31.1 5 Noroeste 16 Oeste 0 -- -- 20
2018-08-13 19:00:00 32.5 5 Noroeste 22 Noroeste 0 -- -- 18
2018-08-13 18:00:00 32.7 8 Noroeste 22 Oeste 0 -- -- 25
2018-08-13 17:00:00 32.7 6 Noroeste 22 Noroeste 0 -- -- 32
2018-08-13 16:00:00 31.6 5 Oeste 27 Oeste 0 -- -- 34
2018-08-13 15:00:00 30.3 7 Oeste 19 Oeste 0 -- -- 35
2018-08-13 14:00:00 29.1 5 Noroeste 18 Noroeste 0 -- -- 39
2018-08-13 13:00:00 28.3 5 Oeste 15 Oeste 0 -- -- 40
2018-08-13 12:00:00 26.7 4 Noroeste 14 Noroeste 0 -- -- 44
2018-08-13 11:00:00 25.5 5 Sudoeste 12 Sudoeste 0 -- -- 47
2018-08-13 10:00:00 22.5 4 Oeste 9 Sudoeste 0 -- -- 58
2018-08-13 09:00:00 21.2 0 Calma 8 Oeste 0 -- -- 62
2018-08-13 08:00:00 20.5 0 Calma 7 Oeste 0 -- -- 66
2018-08-13 07:00:00 21 0 Calma 6 Nordeste 0 -- -- 63
2018-08-13 06:00:00 22.1 0 Calma 6 Oeste 0 -- -- 57
2018-08-13 05:00:00 22.8 2 Norte 8 Norte 0 -- -- 54
2018-08-13 04:00:00 23.6 2 Norte 10 Oeste 0 -- -- 50
2018-08-13 03:00:00 24.7 4 Noroeste 16 Oeste 0 -- -- 46
2018-08-13 02:00:00 26.1 8 Oeste 18 Oeste 0 -- -- 38
2018-08-13 01:00:00 26.8 3 Noroeste 20 Oeste 0 -- -- 37
2018-08-13 00:00:00 27.9 3 Noroeste 13 Noroeste 0 -- -- 35
2018-08-12 23:00:00 29.3 5 Noroeste 17 Noroeste 0 -- -- 31
2018-08-12 22:00:00 30.4 3 Noroeste 15 Oeste 0 -- -- 27
2018-08-12 21:00:00 31.9 4 Noroeste 18 Oeste 0 -- -- 26
2018-08-12 20:00:00 33.3 5 Noroeste 23 Oeste 0 -- -- 26
2018-08-12 19:00:00 34.9 12 Oeste 29 Sudoeste 0 -- -- 26
2018-08-12 18:00:00 36 18 Sudoeste 35 Sudoeste 0 -- -- 24
2018-08-12 17:00:00 36.3 10 Oeste 38 Sudoeste 0 -- -- 26
2018-08-12 16:00:00 36.3 14 Sudoeste 36 Sudoeste 0 -- -- 27
2018-08-12 15:00:00 35.8 17 Sur 35 Sudoeste 0 -- -- 28
2018-08-12 14:00:00 34.6 17 Sudoeste 44 Sudoeste 0 -- -- 30
2018-08-12 13:00:00 33.9 17 Sudoeste 36 Sur 0 -- -- 32
2018-08-12 12:00:00 32.1 19 Sur 32 Sur 0 -- -- 37
2018-08-12 11:00:00 29 14 Sudoeste 28 Sur 0 -- -- 48
2018-08-12 10:00:00 26.7 12 Sur 23 Sudoeste 0 -- -- 55
2018-08-12 09:00:00 24.3 8 Sudoeste 14 Sudoeste 0 -- -- 62
2018-08-12 08:00:00 24.6 8 Sur 19 Sur 0 -- -- 60
2018-08-12 07:00:00 24.8 11 Sur 22 Sur 0 -- -- 60
2018-08-12 06:00:00 25 11 Sur 18 Sur 0 -- -- 58
2018-08-12 05:00:00 25.2 8 Sudoeste 24 Sur 0 -- -- 55
2018-08-12 04:00:00 26.1 14 Sur 22 Sur 0 -- -- 50
2018-08-12 03:00:00 26.4 10 Sudoeste 16 Sur 0 -- -- 47
2018-08-12 02:00:00 26.5 11 Sudoeste 16 Sudoeste 0 -- -- 46
2018-08-12 01:00:00 27.1 4 Sur 23 Este 0 -- -- 44
2018-08-12 00:00:00 27.9 10 Este 26 Sudeste 0 -- -- 45
2018-08-11 23:00:00 31.2 13 Sur 29 Sur 0 -- -- 36
2018-08-11 22:00:00 32.4 4 Sudoeste 28 Sudoeste 0 -- -- 30
2018-08-11 21:00:00 33.9 19 Sudoeste 30 Sudoeste 0 -- -- 30
2018-08-11 20:00:00 35.2 7 Sudoeste 15 Sur 0 -- -- 26
2018-08-11 19:00:00 36.9 3 Sudoeste 13 Norte 0 -- -- 24
2018-08-11 18:00:00 35.8 8 Norte 15 Oeste 0 -- -- 25
2018-08-11 17:00:00 36.3 4 Oeste 22 Oeste 0 -- -- 25
2018-08-11 16:00:00 36.5 5 Noroeste 24 Sudoeste 0 -- -- 25
2018-08-11 15:00:00 35.3 6 Nordeste 22 Sudoeste 0 -- -- 27
2018-08-11 14:00:00 35.5 6 Sudoeste 16 Sudoeste 0 -- -- 27
2018-08-11 13:00:00 33.6 6 Sudoeste 15 Sudoeste 0 -- -- 28
2018-08-11 12:00:00 31.6 5 Este 11 Sudoeste 0 -- -- 30
2018-08-11 11:00:00 28.9 3 Nordeste 12 Sur 0 -- -- 34
2018-08-11 10:00:00 25.9 3 Sudoeste 8 Sur 0 -- -- 41
2018-08-11 09:00:00 24 3 Sudoeste 5 Sur 0 -- -- 45
2018-08-11 08:00:00 22.7 0 Calma 8 Sur 0 -- -- 47
2018-08-11 07:00:00 22.9 4 Sur 16 Sur 0 -- -- 46
2018-08-11 06:00:00 23.4 13 Sudoeste 27 Sur 0 -- -- 45
2018-08-11 05:00:00 24.6 17 Sur 26 Sudoeste 0 -- -- 42
2018-08-11 04:00:00 25 16 Sur 23 Sur 0 -- -- 37
2018-08-11 03:00:00 24.8 5 Sur 12 Sudoeste 0 -- -- 27
2018-08-11 02:00:00 25.7 2 Sudoeste 6 Sudoeste 0 -- -- 27
2018-08-11 01:00:00 25.7 3 Sur 6 Sur 0 -- -- 27
2018-08-11 00:00:00 27.4 3 Norte 10 Sur 0 -- -- 25
2018-08-10 23:00:00 28.1 0 Calma 8 Norte 0 -- -- 24
2018-08-10 22:00:00 29.4 3 Norte 9 Noroeste 0 -- -- 23
2018-08-10 21:00:00 32.8 0 Calma 12 Oeste 0 -- -- 20
2018-08-10 20:00:00 33.5 3 Noroeste 21 Norte 0 -- -- 19
2018-08-10 19:00:00 35.1 3 Noroeste 21 Oeste 0 -- -- 18
2018-08-10 18:00:00 35.2 6 Oeste 17 Sudoeste 0 -- -- 18
2018-08-10 17:00:00 36.4 9 Sur 24 Oeste 0 -- -- 17
2018-08-10 16:00:00 35.7 6 Sudoeste 27 Sudoeste 0 -- -- 18
2018-08-10 15:00:00 35.1 10 Sur 17 Sur 0 -- -- 19
2018-08-10 14:00:00 32.2 4 Noroeste 13 Norte 0 -- -- 23
2018-08-10 13:00:00 30.9 6 Nordeste 14 Este 0 -- -- 24
2018-08-10 12:00:00 29.5 3 Sudoeste 12 Este 0 -- -- 26
2018-08-10 11:00:00 26.6 5 Este 11 Este 0 -- -- 30
2018-08-10 10:00:00 23.1 2 Norte 6 Norte 0 -- -- 30
2018-08-10 09:00:00 20.9 2 Norte 5 Norte 0 -- -- 33
2018-08-10 08:00:00 18.9 2 Norte 4 Nordeste 0 -- -- 36
2018-08-10 07:00:00 18.6 0 Calma 3 Sudeste 0 -- -- 38
2018-08-10 06:00:00 18.8 0 Calma 4 Norte 0 -- -- 37
2018-08-10 05:00:00 19.8 0 Calma 3 Sudoeste 0 -- -- 36
2018-08-10 04:00:00 20.7 0 Calma 3 Sur 0 -- -- 33
2018-08-10 03:00:00 21.4 0 Calma 3 Sur 0 -- -- 32
2018-08-10 02:00:00 22.5 0 Calma 2 Norte 0 -- -- 30
2018-08-10 01:00:00 23.4 0 Calma 4 Oeste 0 -- -- 29
2018-08-10 00:00:00 24.4 0 Calma 7 Sudoeste 0 -- -- 27
2018-08-09 23:00:00 24.8 2 Noroeste 5 Sudoeste 0 -- -- 27
2018-08-09 22:00:00 25.9 0 Calma 6 Oeste 0 -- -- 25
2018-08-09 21:00:00 28.2 4 Oeste 16 Oeste 0 -- -- 22
2018-08-09 20:00:00 28.3 6 Oeste 17 Oeste 0 -- -- 23
2018-08-09 19:00:00 30.5 7 Oeste 24 Oeste 0 -- -- 21
2018-08-09 18:00:00 30.9 6 Oeste 22 Noroeste 0 -- -- 22
2018-08-09 17:00:00 30.7 6 Oeste 24 Oeste 0 -- -- 22
2018-08-09 16:00:00 30 9 Oeste 23 Oeste 0 -- -- 28
2018-08-09 15:00:00 27.8 7 Noroeste 22 Oeste 0 -- -- 32
2018-08-09 14:00:00 26.4 5 Noroeste 21 Sudoeste 0 -- -- 37
2018-08-09 13:00:00 26.7 8 Oeste 18 Noroeste 0 -- -- 39
2018-08-09 12:00:00 23 5 Oeste 12 Noroeste 0 -- -- 54
2018-08-09 11:00:00 21.8 5 Oeste 15 Oeste 0 -- -- 57
2018-08-09 10:00:00 19.2 3 Oeste 8 Noroeste 0 -- -- 68
2018-08-09 09:00:00 17.4 3 Noroeste 9 Noroeste 0 -- -- 76
2018-08-09 08:00:00 16.2 0 Calma 9 Noroeste 0 -- -- 82
2018-08-09 07:00:00 16.7 2 Noroeste 10 Oeste 0 -- -- 79
2018-08-09 06:00:00 17.5 2 Noroeste 13 Oeste 0 -- -- 75
2018-08-09 05:00:00 18.4 2 Nordeste 18 Noroeste 0 -- -- 70
2018-08-09 04:00:00 19.4 8 Oeste 17 Noroeste 0 -- -- 65
2018-08-09 03:00:00 20.6 4 Noroeste 16 Noroeste 0 -- -- 58
2018-08-09 02:00:00 22.1 8 Oeste 23 Oeste 0 -- -- 48
2018-08-09 01:00:00 23.9 13 Oeste 27 Oeste 0 -- -- 37
2018-08-09 00:00:00 25.3 4 Oeste 26 Noroeste 0 -- -- 28
2018-08-08 23:00:00 26.5 10 Oeste 22 Noroeste 0 -- -- 32
2018-08-08 22:00:00 27.8 4 Oeste 14 Noroeste 0 -- -- 35
2018-08-08 21:00:00 29.8 6 Noroeste 22 Noroeste 0 -- -- 31
2018-08-08 20:00:00 31 6 Noroeste 26 Oeste 0 -- -- 30
2018-08-08 19:00:00 33 6 Oeste 40 Noroeste 0 -- -- 26
2018-08-08 18:00:00 35.2 11 Sudoeste 49 Sudoeste 0 -- -- 19
2018-08-08 17:00:00 35.4 18 Sudoeste 43 Sur 0 -- -- 19
2018-08-08 16:00:00 35.1 22 Sudoeste 48 Sudoeste 0 -- -- 22
2018-08-08 15:00:00 34.2 19 Sudoeste 41 Sudoeste 0 -- -- 22
2018-08-08 14:00:00 33.5 14 Sudoeste 28 Sur 0 -- -- 25
2018-08-08 13:00:00 31.8 9 Sudoeste 26 Oeste 0 -- -- 29
2018-08-08 12:00:00 29 12 Sudoeste 24 Sudoeste 0 -- -- 34
2018-08-08 11:00:00 26.4 9 Sur 13 Sur 0 -- -- 39
2018-08-08 10:00:00 23.6 4 Sudoeste 7 Sur 0 -- -- 49
2018-08-08 09:00:00 21.3 0 Calma 6 Norte 0 -- -- 56
2018-08-08 08:00:00 20.8 0 Calma 5 Noroeste 0 -- -- 56
2018-08-08 07:00:00 21.2 0 Calma 8 Noroeste 0 -- -- 54
2018-08-08 06:00:00 21.9 0 Calma 5 Norte 0 -- -- 52
2018-08-08 05:00:00 23 3 Norte 10 Noroeste 0 -- -- 49
2018-08-08 04:00:00 23.9 0 Calma 6 Noroeste 0 -- -- 47
2018-08-08 03:00:00 24.5 3 Noroeste 8 Oeste 0 -- -- 46
2018-08-08 02:00:00 25.7 2 Norte 6 Oeste 0 -- -- 42
2018-08-08 01:00:00 26.6 0 Calma 4 Oeste 0 -- -- 33
2018-08-08 00:00:00 28.1 2 Noroeste 8 Oeste 0 -- -- 29
2018-08-07 23:00:00 29.2 3 Noroeste 10 Oeste 0 -- -- 27
2018-08-07 22:00:00 30.2 2 Oeste 10 Noroeste 0 -- -- 23
2018-08-07 21:00:00 31.5 4 Nordeste 17 Noroeste 0 -- -- 20
2018-08-07 20:00:00 32.7 6 Oeste 26 Oeste 0 -- -- 18
2018-08-07 19:00:00 33.7 8 Noroeste 24 Oeste 0 -- -- 18
2018-08-07 18:00:00 34.8 6 Noroeste 23 Noroeste 0 -- -- 18
2018-08-07 17:00:00 34.6 5 Noroeste 16 Norte 0 -- -- 22
2018-08-07 16:00:00 34.6 5 Noroeste 22 Oeste 0 -- -- 22
2018-08-07 15:00:00 34.3 6 Oeste 19 Oeste 0 -- -- 23
2018-08-07 14:00:00 34.2 5 Noroeste 16 Oeste 0 -- -- 23
2018-08-07 13:00:00 33.6 4 Noroeste 12 Oeste 0 -- -- 24
2018-08-07 12:00:00 32.3 4 Oeste 12 Sur 0 -- -- 26
2018-08-07 11:00:00 29.2 9 Sur 14 Sudoeste 0 -- -- 31
2018-08-07 10:00:00 26.8 10 Sudoeste 14 Sudoeste 0 -- -- 37
2018-08-07 09:00:00 25.6 0 Calma 9 Noroeste 0 -- -- 31
2018-08-07 08:00:00 25.4 0 Calma 9 Sudoeste 0 -- -- 28
2018-08-07 07:00:00 25.5 4 Norte 9 Norte 0 -- -- 28
2018-08-07 06:00:00 26.9 3 Noroeste 9 Oeste 0 -- -- 26
2018-08-07 05:00:00 27.8 0 Calma 17 Nordeste 0 -- -- 30
2018-08-07 04:00:00 28.9 7 Nordeste 14 Nordeste 0 -- -- 29
2018-08-07 03:00:00 30.4 3 Noroeste 17 Noroeste 0 -- -- 27
2018-08-07 02:00:00 31.4 2 Oeste 8 Norte 0 -- -- 23
2018-08-07 01:00:00 31.5 0 Calma 7 Norte 0 -- -- 23
2018-08-07 00:00:00 31.8 2 Sudoeste 24 Sudoeste 0 -- -- 23
2018-08-06 23:00:00 32.4 8 Este 21 Este 0 -- -- 23
2018-08-06 22:00:00 34 3 Nordeste 10 Este 0 -- -- 21
2018-08-06 21:00:00 34.9 6 Este 28 Este 0 -- -- 22
2018-08-06 20:00:00 36.7 20 Este 44 Nordeste 0 -- -- 20
2018-08-06 19:00:00 40.2 6 Oeste 18 Sudoeste 0 -- -- 17
2018-08-06 18:00:00 40.9 4 Noroeste 18 Oeste 0 -- -- 16
2018-08-06 17:00:00 40.2 7 Nordeste 19 Norte 0 -- -- 16
2018-08-06 16:00:00 39.9 5 Norte 18 Norte 0 -- -- 17
2018-08-06 15:00:00 40.1 7 Sudoeste 16 Nordeste 0 -- -- 17
2018-08-06 14:00:00 38.7 5 Oeste 12 Sudeste 0 -- -- 18
2018-08-06 13:00:00 36.6 7 Sudoeste 15 Sudoeste 0 -- -- 22
2018-08-06 12:00:00 33.4 9 Sudoeste 18 Sur 0 -- -- 28
2018-08-06 11:00:00 30.5 12 Sudoeste 17 Sur 0 -- -- 32
2018-08-06 10:00:00 27.7 7 Sur 10 Sur 0 -- -- 37
2018-08-06 09:00:00 24.7 5 Sur -- -- -- -- -- 39
2018-08-06 08:00:00 24.3 0 Calma 9 Sur 0 -- -- 44
2018-08-06 07:00:00 24.6 7 Sur 17 Sur 0 -- -- 42
2018-08-06 06:00:00 25.6 3 Sur 16 Sur 0 -- -- 38
2018-08-06 05:00:00 26.6 6 Sudoeste 13 Sudoeste 0 -- -- 36
2018-08-06 04:00:00 28.4 0 Calma 7 Sur 0 -- -- 27
2018-08-06 03:00:00 29.7 0 Calma 4 Norte 0 -- -- 24
2018-08-06 02:00:00 30.5 0 Calma 8 Nordeste 0 -- -- 22
2018-08-06 01:00:00 30.9 0 Calma 4 Norte 0 -- -- 24
2018-08-06 00:00:00 32.4 0 Calma 4 Norte 0 -- -- 22
2018-08-05 23:00:00 33.6 0 Calma 5 Norte 0 -- -- 20
2018-08-05 22:00:00 35.4 3 Nordeste 17 Norte 0 -- -- 19
2018-08-05 21:00:00 37.2 6 Norte 23 Norte 0 -- -- 19
2018-08-05 20:00:00 38 10 Norte 23 Norte 0 -- -- 18
2018-08-05 19:00:00 39.3 9 Norte 33 Nordeste 0 -- -- 15
2018-08-05 18:00:00 39.8 5 Noroeste 35 Norte 0 -- -- 15
2018-08-05 17:00:00 39.6 8 Norte 28 Norte 0 -- -- 14
2018-08-05 16:00:00 39.5 12 Nordeste 29 Norte 0 -- -- 17
2018-08-05 15:00:00 38.8 10 Nordeste 24 Norte 0 -- -- 19
2018-08-05 14:00:00 37.3 10 Nordeste 32 Nordeste 0 -- -- 21
2018-08-05 13:00:00 36.7 12 Nordeste 30 Nordeste 0 -- -- 21
2018-08-05 12:00:00 35.4 6 Este 16 Este 0 -- -- 24
2018-08-05 11:00:00 31.6 6 Sudoeste 15 Sur 0 -- -- 29
2018-08-05 10:00:00 27.8 12 Sur 16 Sur 0 -- -- 38
2018-08-05 09:00:00 26.1 2 Sur 10 Sur 0 -- -- 38
2018-08-05 08:00:00 25.7 5 Sur 9 Sudoeste 0 -- -- 36
2018-08-05 07:00:00 27.2 3 Sur 6 Sur 0 -- -- 29
2018-08-05 06:00:00 28.3 0 Calma 3 Norte 0 -- -- 28
2018-08-05 05:00:00 29 0 Calma 7 Nordeste 0 -- -- 26
2018-08-05 04:00:00 29.9 5 Nordeste 8 Nordeste 0 -- -- 26
2018-08-05 03:00:00 30.7 3 Este 6 Este 0 -- -- 25
2018-08-05 02:00:00 31.6 0 Calma 9 Nordeste 0 -- -- 25
2018-08-05 01:00:00 32.6 3 Este 17 Norte 0 -- -- 23
2018-08-05 00:00:00 33.7 3 Norte 8 Noroeste 0 -- -- 21
2018-08-04 23:00:00 34.5 0 Calma 4 Norte 0 -- -- 20
2018-08-04 22:00:00 36.3 4 Norte 13 Norte 0 -- -- 18
2018-08-04 21:00:00 38 7 Norte 27 Norte 0 -- -- 16
2018-08-04 20:00:00 39.3 8 Norte 30 Norte 0 -- -- 15
2018-08-04 19:00:00 40.2 12 Norte 32 Nordeste 0 -- -- 15
2018-08-04 18:00:00 40.7 9 Norte 28 Norte 0 -- -- 16
2018-08-04 17:00:00 40.8 13 Norte 30 Norte 0 -- -- 16
2018-08-04 16:00:00 40.2 4 Noroeste 26 Nordeste 0 -- -- 18
2018-08-04 15:00:00 38.6 8 Norte 24 Nordeste 0 -- -- 19
2018-08-04 14:00:00 37.4 9 Este 26 Norte 0 -- -- 21
2018-08-04 13:00:00 36.4 8 Este 19 Nordeste 0 -- -- 23
2018-08-04 12:00:00 33.3 5 Nordeste 19 Nordeste 0 -- -- 36
2018-08-04 11:00:00 30.7 6 Nordeste 14 Este 0 -- -- 44
2018-08-04 10:00:00 28.3 4 Este 17 Este 0 -- -- 48
2018-08-04 09:00:00 26.6 6 Este 15 Este 0 -- -- 50
2018-08-04 08:00:00 27 5 Este 13 Este 0 -- -- 43
2018-08-04 07:00:00 28.2 5 Este 11 Este 0 -- -- 38
2018-08-04 06:00:00 29.5 3 Nordeste 8 Nordeste 0 -- -- 34
2018-08-04 05:00:00 29.6 0 Calma 6 Nordeste 0 -- -- 35
2018-08-04 04:00:00 30.8 3 Nordeste 9 Nordeste 0 -- -- 34
2018-08-04 03:00:00 32.5 3 Norte 13 Este 0 -- -- 29
2018-08-04 02:00:00 32.5 3 Norte 7 Nordeste 0 -- -- 30
2018-08-04 01:00:00 32.9 4 Nordeste 5 Nordeste 0 -- -- 29
2018-08-04 00:00:00 33.6 0 Calma 6 Norte 0 -- -- 28
2018-08-03 23:00:00 32.8 0 Calma 21 Nordeste 0 -- -- 32
2018-08-03 22:00:00 33.4 18 Nordeste 34 Nordeste 0 -- -- 32
2018-08-03 21:00:00 34.7 4 Nordeste 32 Nordeste 0 -- -- 32
2018-08-03 20:00:00 33.8 23 Este 51 Nordeste 0 -- -- 30
2018-08-03 19:00:00 41.2 10 Oeste 27 Oeste 0 -- -- 18
2018-08-03 18:00:00 41.7 5 Oeste 23 Oeste 0 -- -- 18
2018-08-03 17:00:00 41.2 5 Noroeste 22 Oeste 0 -- -- 18
2018-08-03 16:00:00 41.7 7 Sudoeste 18 Oeste 0 -- -- 18
2018-08-03 15:00:00 40.7 4 Noroeste 14 Oeste 0 -- -- 18
2018-08-03 14:00:00 38.5 4 Noroeste 13 Oeste 0 -- -- 20
2018-08-03 13:00:00 37 6 Oeste 14 Noroeste 0 -- -- 21
2018-08-03 12:00:00 35.3 4 Sur 17 Sudoeste 0 -- -- 25
2018-08-03 11:00:00 32.1 6 Sur 13 Sudoeste 0 -- -- 30
2018-08-03 10:00:00 28.8 9 Sur 14 Sur 0 -- -- 34
2018-08-03 09:00:00 27.1 2 Sur 6 Sur 0 -- -- 36
2018-08-03 08:00:00 26.5 0 Calma 8 Sur 0 -- -- 36
2018-08-03 07:00:00 26.6 6 Sur 13 Sur 0 -- -- 35
2018-08-03 06:00:00 27 5 Sudoeste 12 Sur 0 -- -- 33
2018-08-03 05:00:00 26.8 6 Sur 20 Sudoeste 0 -- -- 32
2018-08-03 04:00:00 29.4 10 Sur 17 Sur 0 -- -- 28
2018-08-03 03:00:00 30.6 0 Calma 5 Este 0 -- -- 25
2018-08-03 02:00:00 32.2 3 Este 10 Sudeste 0 -- -- 24
2018-08-03 01:00:00 32.5 6 Sur 14 Sudoeste 0 -- -- 23
2018-08-03 00:00:00 33.6 3 Este 6 Este 0 -- -- 22
2018-08-02 23:00:00 34.6 2 Este 5 Nordeste 0 -- -- 21
2018-08-02 22:00:00 36.1 3 Este 9 Este 0 -- -- 19
2018-08-02 21:00:00 38 5 Este 19 Nordeste 0 -- -- 18
2018-08-02 20:00:00 39.5 7 Nordeste 19 Nordeste 0 -- -- 16
2018-08-02 19:00:00 41 4 Nordeste 15 Nordeste 0 -- -- 15
2018-08-02 18:00:00 41.3 4 Norte 17 Norte 0 -- -- 16
2018-08-02 17:00:00 41.1 4 Este 18 Este 0 -- -- 16
2018-08-02 16:00:00 40.2 4 Norte 20 Este 0 -- -- 17
2018-08-02 15:00:00 39.8 8 Este 20 Este 0 -- -- 17
2018-08-02 14:00:00 38 7 Nordeste 17 Nordeste 0 -- -- 19
2018-08-02 13:00:00 37.2 4 Este 14 Sur 0 -- -- 20
2018-08-02 12:00:00 34.7 5 Este 14 Este 0 -- -- 23
2018-08-02 11:00:00 31.3 8 Este 17 Este 0 -- -- 29
2018-08-02 10:00:00 28.5 2 Nordeste 8 Este 0 -- -- 31
2018-08-02 09:00:00 25.9 0 Calma 9 Nordeste 0 -- -- 34
2018-08-02 08:00:00 24.9 2 Este 5 Nordeste 0 -- -- 34
2018-08-02 07:00:00 25.2 3 Nordeste 6 Norte 0 -- -- 33
2018-08-02 06:00:00 25.3 3 Norte 6 Norte 0 -- -- 32
2018-08-02 05:00:00 26.1 3 Este 10 Sur 0 -- -- 31
2018-08-02 04:00:00 26.9 9 Sudoeste 16 Sur 0 -- -- 29
2018-08-02 03:00:00 28 9 Sur 22 Sudoeste 0 -- -- 28
2018-08-02 02:00:00 29.6 13 Sudoeste 21 Sudoeste 0 -- -- 26
2018-08-02 01:00:00 30.7 5 Sur 9 Norte 0 -- -- 25
2018-08-02 00:00:00 32.2 3 Sudeste 20 Sudoeste 0 -- -- 23
2018-08-01 23:00:00 33 5 Sudoeste 13 Sudoeste 0 -- -- 22
2018-08-01 22:00:00 34.6 2 Nordeste 6 Nordeste 0 -- -- 21
2018-08-01 21:00:00 37 2 Norte 10 Nordeste 0 -- -- 19
2018-08-01 20:00:00 38.6 3 Nordeste 10 Norte 0 -- -- 17
2018-08-01 19:00:00 40.2 4 Oeste 14 Oeste 0 -- -- 17
2018-08-01 18:00:00 40 5 Oeste 15 Nordeste 0 -- -- 17
2018-08-01 17:00:00 39.9 7 Nordeste 17 Sur 0 -- -- 17
2018-08-01 16:00:00 40.3 6 Sudoeste 24 Sudoeste 0 -- -- 17
2018-08-01 15:00:00 38.4 10 Nordeste 17 Nordeste 0 -- -- 19
2018-08-01 14:00:00 36.6 6 Nordeste 17 Sudoeste 0 -- -- 21
2018-08-01 13:00:00 36.5 5 Sudoeste 12 Sur 0 -- -- 20
2018-08-01 12:00:00 33.7 4 Nordeste 12 Nordeste 0 -- -- 23
2018-08-01 11:00:00 30.5 4 Este 8 Sudoeste 0 -- -- 25
2018-08-01 10:00:00 25.8 0 Calma 4 Sudoeste 0 -- -- 34
2018-08-01 09:00:00 23.4 0 Calma 4 Nordeste 0 -- -- 36
2018-08-01 08:00:00 21.1 0 Calma 4 Nordeste 0 -- -- 40
2018-08-01 07:00:00 21.1 0 Calma 8 Sur 0 -- -- 39
2018-08-01 06:00:00 23 0 Calma 3 Nordeste 0 -- -- 34
2018-08-01 05:00:00 23.6 0 Calma 3 Nordeste 0 -- -- 32
2018-08-01 04:00:00 24.9 0 Calma 3 Nordeste 0 -- -- 30
2018-08-01 03:00:00 25.8 0 Calma 2 Oeste 0 -- -- 28
2018-08-01 02:00:00 26.9 0 Calma 5 Nordeste 0 -- -- 26
2018-08-01 01:00:00 27.9 2 Norte 8 Noroeste 0 -- -- 25
2018-08-01 00:00:00 28.3 0 Calma 6 Noroeste 0 -- -- 26
2018-07-31 23:00:00 29 0 Calma 6 Norte 0 -- -- 27
2018-07-31 22:00:00 30.4 3 Norte 8 Noroeste 0 -- -- 25
2018-07-31 21:00:00 33.5 3 Noroeste 9 Norte 0 -- -- 23
2018-07-31 20:00:00 34 4 Norte 14 Oeste 0 -- -- 24
2018-07-31 19:00:00 35.8 3 Noroeste 17 Sur 0 -- -- 23
2018-07-31 18:00:00 36.2 9 Sudoeste 20 Sur 0 -- -- 24
2018-07-31 17:00:00 36.2 8 Sudoeste 20 Sudoeste 0 -- -- 24
2018-07-31 16:00:00 35 8 Nordeste 19 Sur 0 -- -- 23
2018-07-31 15:00:00 33.4 3 Norte 16 Noroeste 0 -- -- 26
2018-07-31 14:00:00 32.7 6 Oeste 15 Sudoeste 0 -- -- 29
2018-07-31 13:00:00 31 5 Norte 10 Norte 0 -- -- 36
2018-07-31 12:00:00 28.4 3 Norte 9 Noroeste 0 -- -- 46
2018-07-31 11:00:00 25.2 4 Oeste 10 Nordeste 0 -- -- 57
2018-07-31 10:00:00 22.9 4 Sudoeste 8 Sur 0 -- -- 61
2018-07-31 09:00:00 20.7 2 Sudoeste 3 Sudoeste 0 -- -- 69
2018-07-31 08:00:00 19.6 0 Calma 4 Norte 0 -- -- 74
2018-07-31 07:00:00 19.8 0 Calma 7 Noroeste 0 -- -- 72
2018-07-31 06:00:00 20.6 2 Norte 6 Norte 0 -- -- 67
2018-07-31 05:00:00 21.1 3 Norte 7 Norte 0 -- -- 61
2018-07-31 04:00:00 22.2 0 Calma 6 Oeste 0 -- -- 54
2018-07-31 03:00:00 23.2 3 Oeste 9 Oeste 0 -- -- 47
2018-07-31 02:00:00 24.6 3 Noroeste 9 Oeste 0 -- -- 42
2018-07-31 01:00:00 25.8 2 Noroeste 9 Noroeste 0 -- -- 37
2018-07-31 00:00:00 26.7 0 Calma 5 Oeste 0 -- -- 30
2018-07-30 23:00:00 26.8 0 Calma 6 Noroeste 0 -- -- 27
2018-07-30 22:00:00 28.5 0 Calma 8 Sudoeste 0 -- -- 24
2018-07-30 21:00:00 31.2 3 Noroeste 11 Oeste 0 -- -- 21
2018-07-30 20:00:00 31.6 4 Oeste 16 Oeste 0 -- -- 22
2018-07-30 19:00:00 33.6 5 Noroeste 15 Oeste 0 -- -- 20
2018-07-30 18:00:00 33.3 4 Noroeste 21 Sudoeste 0 -- -- 19
2018-07-30 17:00:00 33.4 5 Oeste 17 Oeste 0 -- -- 22
2018-07-30 16:00:00 33.2 5 Oeste 20 Sudoeste 0 -- -- 21
2018-07-30 15:00:00 32 4 Oeste 17 Oeste 0 -- -- 21
2018-07-30 14:00:00 31 6 Oeste 16 Oeste 0 -- -- 25
2018-07-30 13:00:00 28.2 4 Oeste 16 Oeste 0 -- -- 35
2018-07-30 12:00:00 27 3 Nordeste 11 Oeste 0 -- -- 38
2018-07-30 11:00:00 24.3 4 Sudoeste 11 Sur 0 -- -- 45
2018-07-30 10:00:00 20.3 6 Sur 11 Sur 0 -- -- 55
2018-07-30 09:00:00 18.5 2 Sudoeste 3 Sur 0 -- -- 64
2018-07-30 08:00:00 17.4 0 Calma 4 Nordeste 0 -- -- 68
2018-07-30 07:00:00 17.7 2 Norte 7 Noroeste 0 -- -- 67
2018-07-30 06:00:00 18.1 0 Calma 7 Oeste 0 -- -- 64
2018-07-30 05:00:00 18.9 2 Norte 8 Oeste 0 -- -- 61
2018-07-30 04:00:00 20.1 4 Noroeste 14 Noroeste 0 -- -- 54
2018-07-30 03:00:00 21.1 4 Noroeste 13 Noroeste 0 -- -- 48
2018-07-30 02:00:00 22.1 0 Calma 12 Noroeste 0 -- -- 39
2018-07-30 01:00:00 23.1 2 Noroeste 7 Oeste 0 -- -- 34
2018-07-30 00:00:00 24 2 Noroeste 7 Noroeste 0 -- -- 27
2018-07-29 23:00:00 24.9 0 Calma 8 Oeste 0 -- -- 24
2018-07-29 22:00:00 26.1 3 Noroeste 9 Oeste 0 -- -- 23
2018-07-29 21:00:00 28.4 3 Noroeste 15 Oeste 0 -- -- 21
2018-07-29 20:00:00 29 4 Noroeste 15 Noroeste 0 -- -- 23
2018-07-29 19:00:00 30.8 5 Noroeste 18 Oeste 0 -- -- 21
2018-07-29 18:00:00 30.7 6 Oeste 21 Oeste 0 -- -- 22
2018-07-29 17:00:00 31.3 6 Oeste 22 Sudoeste 0 -- -- 20
2018-07-29 16:00:00 30.8 6 Oeste 23 Noroeste 0 -- -- 21
2018-07-29 15:00:00 29.3 7 Oeste 18 Noroeste 0 -- -- 26
2018-07-29 14:00:00 28 4 Oeste 17 Sudoeste 0 -- -- 36
2018-07-29 13:00:00 26.2 6 Noroeste 17 Oeste 0 -- -- 36
2018-07-29 12:00:00 25.2 3 Noroeste 22 Oeste 0 -- -- 46
2018-07-29 11:00:00 23.6 6 Sudoeste 17 Sur 0 -- -- 55
2018-07-29 10:00:00 21.1 5 Sudoeste 10 Sudoeste 0 -- -- 65
2018-07-29 09:00:00 19.3 0 Calma 6 Norte 0 -- -- 70
2018-07-29 08:00:00 17.9 2 Norte 6 Norte 0 -- -- 75
2018-07-29 07:00:00 18.3 2 Noroeste 6 Noroeste 0 -- -- 74
2018-07-29 06:00:00 19.1 3 Norte 9 Oeste 0 -- -- 70
2018-07-29 05:00:00 20.2 3 Noroeste 13 Oeste 0 -- -- 65
2018-07-29 04:00:00 21.1 5 Noroeste 20 Noroeste 0 -- -- 61
2018-07-29 03:00:00 22.2 4 Noroeste 19 Oeste 0 -- -- 54
2018-07-29 02:00:00 23.8 8 Oeste 21 Oeste 0 -- -- 46
2018-07-29 01:00:00 24.5 0 Calma 12 Oeste 0 -- -- 41
2018-07-29 00:00:00 25.1 2 Oeste 7 Oeste 0 -- -- 37
2018-07-28 23:00:00 26.4 0 Calma 5 Oeste 0 -- -- 27
2018-07-28 22:00:00 27.4 2 Noroeste 12 Norte 0 -- -- 23
2018-07-28 21:00:00 29.7 4 Noroeste 18 Oeste 0 -- -- 20
2018-07-28 20:00:00 30.6 6 Noroeste 18 Oeste 0 -- -- 20
2018-07-28 19:00:00 32.7 5 Oeste 24 Sudoeste 0 -- -- 20
2018-07-28 18:00:00 32.6 6 Noroeste 19 Oeste 0 -- -- 21
2018-07-28 17:00:00 33.4 5 Noroeste 18 Noroeste 0 -- -- 22
2018-07-28 16:00:00 33.5 7 Oeste 29 Oeste 0 -- -- 22
2018-07-28 15:00:00 31.9 5 Noroeste 21 Oeste 0 -- -- 26
2018-07-28 14:00:00 30.5 5 Noroeste 27 Sudoeste 0 -- -- 29
2018-07-28 13:00:00 30.1 7 Oeste 28 Oeste 0 -- -- 31
2018-07-28 12:00:00 27.6 13 Sur 21 Sudoeste 0 -- -- 37
2018-07-28 11:00:00 24.5 11 Sur 16 Sudoeste 0 -- -- 46
2018-07-28 10:00:00 20.8 9 Sur 15 Sur 0 -- -- 58
2018-07-28 09:00:00 18.9 2 Sur 6 Sudoeste 0 -- -- 66
2018-07-28 08:00:00 17.7 3 Nordeste 5 Nordeste 0 -- -- 71
2018-07-28 07:00:00 18 0 Calma 7 Oeste 0 -- -- 70
2018-07-28 06:00:00 18.6 2 Oeste 7 Nordeste 0 -- -- 68
2018-07-28 05:00:00 19.8 2 Oeste 12 Oeste 0 -- -- 63
2018-07-28 04:00:00 21.3 4 Noroeste 15 Oeste 0 -- -- 55
2018-07-28 03:00:00 22.3 3 Noroeste 10 Oeste 0 -- -- 48
2018-07-28 02:00:00 23.6 2 Noroeste 13 Oeste 0 -- -- 40
2018-07-28 01:00:00 25.2 5 Noroeste 12 Noroeste 0 -- -- 35
2018-07-28 00:00:00 26.4 4 Noroeste 15 Oeste 0 -- -- 33
2018-07-27 23:00:00 27.2 2 Noroeste 9 Noroeste 0 -- -- 31
2018-07-27 22:00:00 28.3 0 Calma 14 Oeste 0 -- -- 27
2018-07-27 21:00:00 30.5 4 Noroeste 14 Oeste 0 -- -- 26
2018-07-27 20:00:00 31.3 6 Noroeste 22 Norte 0 -- -- 24
2018-07-27 19:00:00 32.7 7 Noroeste 25 Noroeste 0 -- -- 23
2018-07-27 18:00:00 33.2 6 Noroeste 24 Sudoeste 0 -- -- 25
2018-07-27 17:00:00 34 6 Noroeste 26 Oeste 0 -- -- 28
2018-07-27 16:00:00 34.2 8 Oeste 21 Oeste 0 -- -- 27
2018-07-27 15:00:00 34.6 11 Sudoeste 28 Oeste 0 -- -- 26
2018-07-27 14:00:00 33 10 Sudoeste 25 Sudoeste 0 -- -- 27
2018-07-27 13:00:00 32.3 9 Sudoeste 17 Sudoeste 0 -- -- 31
2018-07-27 12:00:00 29.1 4 Oeste 12 Oeste 0 -- -- 35
2018-07-27 11:00:00 26.4 6 Sur 12 Sur 0 -- -- 46
2018-07-27 10:00:00 22.9 5 Sur 8 Sur 0 -- -- 54
2018-07-27 09:00:00 21.6 0 Calma 4 Nordeste 0 -- -- 62
2018-07-27 08:00:00 20.1 0 Calma 4 Norte 0 -- -- 67
2018-07-27 07:00:00 20.3 0 Calma 6 Oeste 0 -- -- 66
2018-07-27 06:00:00 21.1 0 Calma 6 Nordeste 0 -- -- 60
2018-07-27 05:00:00 22 2 Noroeste 8 Oeste 0 -- -- 52
2018-07-27 04:00:00 22.8 0 Calma 5 Oeste 0 -- -- 46
2018-07-27 03:00:00 24 0 Calma 5 Noroeste 0 -- -- 39
2018-07-27 02:00:00 25.1 0 Calma 6 Noroeste 0 -- -- 32
2018-07-27 01:00:00 25.5 0 Calma 5 Oeste 0 -- -- 29
2018-07-27 00:00:00 26.2 0 Calma 8 Noroeste 0 -- -- 27
2018-07-26 23:00:00 26.9 2 Oeste 9 Noroeste 0 -- -- 29
2018-07-26 22:00:00 28 3 Noroeste 10 Noroeste 0 -- -- 32
2018-07-26 21:00:00 30.3 4 Noroeste 20 Norte 0 -- -- 30
2018-07-26 20:00:00 31.8 4 Noroeste 21 Norte 0 -- -- 31
2018-07-26 19:00:00 33.9 4 Noroeste 21 Oeste 0 -- -- 28
2018-07-26 18:00:00 33.9 5 Oeste 23 Sudoeste 0 -- -- 28
2018-07-26 17:00:00 33.8 8 Sudoeste 22 Sudoeste 0 -- -- 27
2018-07-26 16:00:00 34 6 Oeste 21 Sudoeste 0 -- -- 27
2018-07-26 15:00:00 32.7 5 Sudeste 20 Oeste 0 -- -- 32
2018-07-26 14:00:00 31 4 Noroeste 15 Sudoeste 0 -- -- 36
2018-07-26 13:00:00 28.8 4 Norte 15 Oeste 0 -- -- 37
2018-07-26 12:00:00 27.8 4 Oeste 12 Noroeste 0 -- -- 43
2018-07-26 11:00:00 25.1 3 Oeste 8 Oeste 0 -- -- 54
2018-07-26 10:00:00 22.9 2 Noroeste 9 Oeste 0 -- -- 63
2018-07-26 09:00:00 20.7 2 Noroeste 6 Noroeste 0 -- -- 70
2018-07-26 08:00:00 19.2 0 Calma 7 Noroeste 0 -- -- 75
2018-07-26 07:00:00 19.6 0 Calma 6 Norte 0 -- -- 73
2018-07-26 06:00:00 20.4 0 Calma 6 Oeste 0 -- -- 69
2018-07-26 05:00:00 20.9 4 Norte 9 Norte 0 -- -- 67
2018-07-26 04:00:00 22 2 Noroeste 12 Oeste 0 -- -- 58
2018-07-26 03:00:00 23 3 Noroeste 11 Norte 0 -- -- 48
2018-07-26 02:00:00 24.7 2 Noroeste 14 Oeste 0 -- -- 38
2018-07-26 01:00:00 25.8 3 Noroeste 11 Noroeste 0 -- -- 34
2018-07-26 00:00:00 26.8 4 Noroeste 13 Oeste 0 -- -- 37
2018-07-25 23:00:00 27.4 4 Noroeste 11 Oeste 0 -- -- 38
2018-07-25 22:00:00 29.1 4 Noroeste 17 Oeste 0 -- -- 34
2018-07-25 21:00:00 32.4 3 Noroeste 12 Oeste 0 -- -- 24
2018-07-25 20:00:00 33.4 4 Oeste 21 Sur 0 -- -- 19
2018-07-25 19:00:00 35.4 8 Sudoeste 22 Sudoeste 0 -- -- 19
2018-07-25 18:00:00 35.9 8 Sudoeste 21 Oeste 0 -- -- 18
2018-07-25 17:00:00 35.4 6 Oeste 25 Oeste 0 -- -- 19
2018-07-25 16:00:00 34.8 6 Sudeste 24 Sudoeste 0 -- -- 22
2018-07-25 15:00:00 34.2 10 Sudoeste 26 Sur 0 -- -- 25
2018-07-25 14:00:00 32.9 11 Sudoeste 28 Sudoeste 0 -- -- 28
2018-07-25 13:00:00 31.2 6 Sur 16 Sur 0 -- -- 32
2018-07-25 12:00:00 29.2 8 Sur 14 Sur 0 -- -- 39
2018-07-25 11:00:00 26.5 5 Sudoeste 11 Sur 0 -- -- 46
2018-07-25 10:00:00 23 3 Oeste 6 Sudoeste 0 -- -- 56
2018-07-25 09:00:00 20.7 0 Calma 6 Norte 0 -- -- 64
2018-07-25 08:00:00 19 0 Calma 6 Norte 0 -- -- 68
2018-07-25 07:00:00 19.2 3 Norte 6 Norte 0 -- -- 64
2018-07-25 06:00:00 20 3 Norte 6 Oeste 0 -- -- 59
2018-07-25 05:00:00 20.9 0 Calma 6 Norte 0 -- -- 55
2018-07-25 04:00:00 21.6 0 Calma 7 Sur 0 -- -- 52
2018-07-25 03:00:00 22.5 3 Norte 9 Norte 0 -- -- 48
2018-07-25 02:00:00 23.6 3 Noroeste 9 Noroeste 0 -- -- 44
2018-07-25 01:00:00 24.5 2 Noroeste 8 Oeste 0 -- -- 42
2018-07-25 00:00:00 25.3 3 Noroeste 12 Noroeste 0 -- -- 41
2018-07-24 23:00:00 26.4 4 Noroeste 11 Norte 0 -- -- 39
2018-07-24 22:00:00 27.7 4 Noroeste 14 Oeste 0 -- -- 36
2018-07-24 21:00:00 30.5 4 Noroeste 22 Oeste 0 -- -- 34
2018-07-24 20:00:00 32.2 5 Noroeste 15 Norte 0 -- -- 30
2018-07-24 19:00:00 33.8 4 Noroeste 14 Oeste 0 -- -- 27
2018-07-24 18:00:00 33.7 5 Noroeste 19 Oeste 0 -- -- 27
2018-07-24 17:00:00 34.3 5 Norte 20 Sudoeste 0 -- -- 26
2018-07-24 16:00:00 34.3 8 Oeste 18 Sudoeste 0 -- -- 24
2018-07-24 15:00:00 32.5 6 Oeste 23 Norte 0 -- -- 28
2018-07-24 14:00:00 32.2 6 Sur 19 Sudoeste 0 -- -- 29
2018-07-24 13:00:00 30.2 8 Sudoeste 18 Sur 0 -- -- 36
2018-07-24 12:00:00 27.7 7 Sudoeste 15 Sur 0 -- -- 42
2018-07-24 11:00:00 25.9 4 Sudoeste 10 Sur 0 -- -- 48
2018-07-24 10:00:00 22.8 4 Sur 8 Sur 0 -- -- 58
2018-07-24 09:00:00 21 2 Noroeste 7 Noroeste 0 -- -- 64
2018-07-24 08:00:00 19.6 0 Calma 8 Noroeste 0 -- -- 68
2018-07-24 07:00:00 20.1 0 Calma 12 Oeste 0 -- -- 64
2018-07-24 06:00:00 21 2 Oeste 10 Noroeste 0 -- -- 58
2018-07-24 05:00:00 22 2 Noroeste 9 Oeste 0 -- -- 53
2018-07-24 04:00:00 23.2 3 Noroeste 12 Sudoeste 0 -- -- 47
2018-07-24 03:00:00 24.3 6 Sudoeste 11 Sudoeste 0 -- -- 37
2018-07-24 02:00:00 25.8 3 Oeste 8 Oeste 0 -- -- 34
2018-07-24 01:00:00 26.5 3 Noroeste 15 Noroeste 0 -- -- 32
2018-07-24 00:00:00 27.6 5 Noroeste 19 Oeste 0 -- -- 30
2018-07-23 23:00:00 28.4 4 Noroeste 11 Oeste 0 -- -- 31
2018-07-23 22:00:00 29.9 2 Noroeste 18 Oeste 0 -- -- 26
2018-07-23 21:00:00 32.8 8 Oeste 23 Sudoeste 0 -- -- 22
2018-07-23 20:00:00 33.4 13 Sudoeste 35 Sur 0 -- -- 21
2018-07-23 19:00:00 35.3 13 Sudoeste 37 Sur 0 -- -- 18
2018-07-23 18:00:00 36.1 10 Sudoeste 32 Sudoeste 0 -- -- 19
2018-07-23 17:00:00 36.4 12 Sudoeste 33 Sur 0 -- -- 20
2018-07-23 16:00:00 35.5 18 Sudoeste 36 Sur 0 -- -- 21
2018-07-23 15:00:00 34.9 4 Oeste 27 Sur 0 -- -- 25
2018-07-23 14:00:00 33.8 11 Sudoeste 25 Sur 0 -- -- 24
2018-07-23 13:00:00 31.4 8 Sudoeste 23 Sudoeste 0 -- -- 26
2018-07-23 12:00:00 29.9 9 Oeste 19 Sudoeste 0 -- -- 27
2018-07-23 11:00:00 27 12 Sudoeste 23 Sudoeste 0 -- -- 31
2018-07-23 10:00:00 24.5 13 Sur 25 Sudoeste 0 -- -- 36
2018-07-23 09:00:00 22.3 9 Sur 17 Sur 0 -- -- 42
2018-07-23 08:00:00 21.1 6 Sur 15 Sur 0 -- -- 47
2018-07-23 07:00:00 21.4 9 Sur 15 Sur 0 -- -- 47
2018-07-23 06:00:00 23.1 9 Sur 13 Sur 0 -- -- 44
2018-07-23 05:00:00 23.7 3 Sur 6 Este 0 -- -- 43
2018-07-23 04:00:00 24.4 3 Sudeste 11 Sur 0 -- -- 39
2018-07-23 03:00:00 25.3 2 Sudoeste 6 Sudoeste 0 -- -- 36
2018-07-23 02:00:00 26 0 Calma 5 Sudoeste 0 -- -- 33
2018-07-23 01:00:00 26.2 0 Calma 3 Sur 0 -- -- 33
2018-07-23 00:00:00 27.1 0 Calma 6 Oeste 0 -- -- 32
2018-07-22 23:00:00 28.2 0 Calma 6 Nordeste 0 -- -- 32
2018-07-22 22:00:00 29.6 2 Norte 12 Norte 0 -- -- 30
2018-07-22 21:00:00 32.4 3 Noroeste 11 Oeste 0 -- -- 25
2018-07-22 20:00:00 33.3 3 Noroeste 15 Sur 0 -- -- 23
2018-07-22 19:00:00 34.7 9 Sudoeste 19 Sudoeste 0 -- -- 20
2018-07-22 18:00:00 35.1 6 Oeste 21 Sudoeste 0 -- -- 21
2018-07-22 17:00:00 35.4 8 Oeste 24 Oeste 0 -- -- 19
2018-07-22 16:00:00 34.5 14 Sur 25 Sur 0 -- -- 23
2018-07-22 15:00:00 34 14 Sur 25 Sur 0 -- -- 24
2018-07-22 14:00:00 32.7 9 Sudoeste 24 Sudoeste 0 -- -- 27
2018-07-22 13:00:00 30.6 10 Sudoeste 24 Sur 0 -- -- 30
2018-07-22 12:00:00 28.5 11 Sudoeste 20 Sudoeste 0 -- -- 37
2018-07-22 11:00:00 25.5 6 Sudoeste 11 Sur 0 -- -- 43
2018-07-22 10:00:00 22.6 0 Calma 4 Sudoeste 0 -- -- 54
2018-07-22 09:00:00 20.5 0 Calma 4 Nordeste 0 -- -- 58
2018-07-22 08:00:00 20 0 Calma 3 Sudeste 0 -- -- 59
2018-07-22 07:00:00 20.3 0 Calma 4 Norte 0 -- -- 59
2018-07-22 06:00:00 21.3 2 Norte 5 Norte 0 -- -- 58
2018-07-22 05:00:00 21.8 0 Calma 8 Oeste 0 -- -- 55
2018-07-22 04:00:00 22.6 2 Norte 10 Noroeste 0 -- -- 52
2018-07-22 03:00:00 23.7 3 Noroeste 10 Oeste 0 -- -- 43
2018-07-22 02:00:00 24.5 0 Calma 6 Oeste 0 -- -- 36
2018-07-22 01:00:00 25.4 2 Norte 5 Norte 0 -- -- 34
2018-07-22 00:00:00 25.8 2 Sudoeste 7 Sur 0 -- -- 35
2018-07-21 23:00:00 27 0 Calma 7 Oeste 0 -- -- 30
2018-07-21 22:00:00 28.2 0 Calma 12 Noroeste 0 -- -- 27
2018-07-21 21:00:00 30 3 Noroeste 21 Noroeste 0 -- -- 25
2018-07-21 20:00:00 30.6 6 Noroeste 17 Noroeste 0 -- -- 27
2018-07-21 19:00:00 32.3 5 Noroeste 19 Oeste 0 -- -- 26
2018-07-21 18:00:00 32.5 8 Oeste 26 Oeste 0 -- -- 26
2018-07-21 17:00:00 32.7 7 Oeste 22 Sudoeste 0 -- -- 28
2018-07-21 16:00:00 31.8 5 Norte 19 Noroeste 0 -- -- 31
2018-07-21 15:00:00 31.9 6 Sudoeste 21 Sudoeste 0 -- -- 29
2018-07-21 14:00:00 30.5 5 Oeste 16 Sur 0 -- -- 34
2018-07-21 13:00:00 29.3 4 Noroeste 12 Oeste 0 -- -- 36
2018-07-21 12:00:00 28.1 7 Sudoeste 16 Sudoeste 0 -- -- 42
2018-07-21 11:00:00 24.9 5 Sur 12 Sur 0 -- -- 51
2018-07-21 10:00:00 22 2 Sudoeste 7 Sur 0 -- -- 61
2018-07-21 09:00:00 20.1 0 Calma 6 Norte 0 -- -- 67
2018-07-21 08:00:00 18.2 0 Calma 6 Norte 0 -- -- 73
2018-07-21 07:00:00 18.7 3 Norte 10 Noroeste 0 -- -- 71
2018-07-21 06:00:00 19.1 3 Norte 8 Oeste 0 -- -- 68
2018-07-21 05:00:00 20 0 Calma 10 Norte 0 -- -- 63
2018-07-21 04:00:00 20.9 3 Noroeste 14 Oeste 0 -- -- 59
2018-07-21 03:00:00 21.7 3 Noroeste 19 Noroeste 0 -- -- 55
2018-07-21 02:00:00 23 4 Noroeste 21 Oeste 0 -- -- 50
2018-07-21 01:00:00 24.3 3 Noroeste 12 Noroeste 0 -- -- 44
2018-07-21 00:00:00 25.3 4 Norte 18 Noroeste 0 -- -- 43
2018-07-20 23:00:00 26.1 0 Calma 9 Noroeste 0 -- -- 41
2018-07-20 22:00:00 27.2 2 Noroeste 14 Oeste 0 -- -- 39
2018-07-20 21:00:00 28.5 7 Oeste 18 Noroeste 0 -- -- 35
2018-07-20 20:00:00 29.4 5 Noroeste 23 Oeste 0 -- -- 29
2018-07-20 19:00:00 30.5 6 Noroeste 23 Oeste 0 -- -- 27
2018-07-20 18:00:00 31 7 Noroeste 25 Oeste 0 -- -- 28
2018-07-20 17:00:00 30.7 7 Oeste 26 Noroeste 0 -- -- 30
2018-07-20 16:00:00 30.4 5 Noroeste 24 Oeste 0 -- -- 33
2018-07-20 15:00:00 29.4 5 Noroeste 18 Oeste 0 -- -- 35
2018-07-20 14:00:00 27.8 4 Noroeste 17 Oeste 0 -- -- 41
2018-07-20 13:00:00 26.1 5 Oeste 14 Noroeste 0 -- -- 47
2018-07-20 12:00:00 24.2 5 Oeste 15 Noroeste 0 -- -- 52
2018-07-20 11:00:00 22.3 4 Norte 13 Oeste 0 -- -- 60
2018-07-20 10:00:00 20.6 3 Noroeste 8 Noroeste 0 -- -- 64
2018-07-20 09:00:00 19.1 2 Norte 10 Oeste 0 -- -- 70
2018-07-20 08:00:00 17.8 0 Calma 4 Oeste 0 -- -- 70
2018-07-20 07:00:00 18.4 0 Calma 5 Noroeste 0 -- -- 67
2018-07-20 06:00:00 19 0 Calma 7 Oeste 0 -- -- 64
2018-07-20 05:00:00 19.7 3 Oeste 12 Norte 0 -- -- 61
2018-07-20 04:00:00 20.8 4 Noroeste 13 Oeste 0 -- -- 55
2018-07-20 03:00:00 21.6 3 Norte 12 Oeste 0 -- -- 48
2018-07-20 02:00:00 22.9 2 Noroeste 12 Oeste 0 -- -- 42
2018-07-20 01:00:00 24 3 Noroeste 12 Oeste 0 -- -- 38
2018-07-20 00:00:00 24.8 0 Calma 10 Oeste 0 -- -- 33